createdAt,value
2018-06-20T00:00:33.160Z,16.10
2018-06-20T00:03:01.606Z,16.10
2018-06-20T00:05:30.061Z,16.10
2018-06-20T00:07:58.476Z,16.10
2018-06-20T00:10:26.961Z,16.00
2018-06-20T00:12:55.366Z,16.00
2018-06-20T00:15:23.801Z,16.00
2018-06-20T00:17:52.221Z,16.00
2018-06-20T00:20:20.662Z,15.90
2018-06-20T00:22:49.083Z,15.90
2018-06-20T00:25:17.565Z,15.90
2018-06-20T00:27:45.968Z,15.90
2018-06-20T00:30:14.414Z,15.90
2018-06-20T00:32:42.901Z,15.80
2018-06-20T00:35:11.427Z,15.80
2018-06-20T00:37:39.856Z,15.70
2018-06-20T00:40:08.329Z,15.70
2018-06-20T00:42:36.738Z,15.70
2018-06-20T00:45:05.421Z,15.70
2018-06-20T00:47:34.007Z,15.60
2018-06-20T00:50:02.497Z,15.60
2018-06-20T00:52:30.944Z,15.70
2018-06-20T00:54:59.378Z,15.60
2018-06-20T00:57:27.785Z,15.60
2018-06-20T00:59:56.233Z,15.60
2018-06-20T01:02:24.721Z,15.50
2018-06-20T01:04:53.166Z,15.50
2018-06-20T01:07:21.807Z,15.50
2018-06-20T01:09:50.237Z,15.50
2018-06-20T01:12:18.760Z,15.50
2018-06-20T01:14:47.202Z,15.50
2018-06-20T01:17:15.620Z,15.50
2018-06-20T01:19:44.983Z,15.50
2018-06-20T01:22:13.389Z,15.50
2018-06-20T01:24:41.807Z,15.40
2018-06-20T01:27:10.241Z,15.40
2018-06-20T01:29:38.705Z,15.40
2018-06-20T01:32:07.166Z,15.40
2018-06-20T01:34:35.604Z,15.40
2018-06-20T01:37:04.060Z,15.40
2018-06-20T01:39:32.493Z,15.30
2018-06-20T01:42:00.941Z,15.30
2018-06-20T01:44:29.422Z,15.30
2018-06-20T01:46:57.885Z,15.30
2018-06-20T01:49:26.310Z,15.20
2018-06-20T01:51:54.756Z,15.20
2018-06-20T01:56:51.563Z,15.10
2018-06-20T01:59:19.980Z,15.10
2018-06-20T02:04:16.612Z,14.90
2018-06-20T02:06:45.089Z,14.90
2018-06-20T02:09:13.493Z,14.90
2018-06-20T02:14:10.060Z,14.90
2018-06-20T02:16:38.516Z,14.80
2018-06-20T02:19:07.048Z,14.80
2018-06-20T02:21:35.484Z,14.80
2018-06-20T02:24:03.952Z,14.80
2018-06-20T02:29:00.540Z,14.80
2018-06-20T02:31:29.179Z,14.90
2018-06-20T02:36:31.862Z,14.80
2018-06-20T02:39:01.027Z,14.80
2018-06-20T02:41:29.677Z,14.80
2018-06-20T02:43:58.092Z,14.80
2018-06-20T02:46:26.557Z,14.70
2018-06-20T02:48:55.076Z,14.70
2018-06-20T02:51:23.538Z,14.70
2018-06-20T02:53:51.964Z,14.60
2018-06-20T02:56:20.414Z,14.60
2018-06-20T02:58:48.820Z,14.60
2018-06-20T03:01:17.266Z,14.50
2018-06-20T03:03:45.778Z,14.50
2018-06-20T03:06:14.267Z,14.50
2018-06-20T03:08:42.682Z,14.50
2018-06-20T03:11:11.168Z,14.50
2018-06-20T03:16:07.708Z,14.40
2018-06-20T03:18:36.137Z,14.40
2018-06-20T03:21:04.897Z,14.30
2018-06-20T03:23:33.344Z,14.40
2018-06-20T03:26:01.945Z,14.30
2018-06-20T03:28:30.384Z,14.30
2018-06-20T03:30:58.806Z,14.30
2018-06-20T03:35:55.336Z,14.40
2018-06-20T03:40:51.917Z,14.40
2018-06-20T03:43:20.360Z,14.40
2018-06-20T03:48:16.875Z,14.30
2018-06-20T03:50:45.434Z,14.10
2018-06-20T03:53:13.949Z,14.10
2018-06-20T03:55:42.364Z,14.10
2018-06-20T03:58:10.800Z,14.00
2018-06-20T04:00:39.416Z,14.00
2018-06-20T04:03:07.877Z,14.00
2018-06-20T04:05:36.289Z,14.00
2018-06-20T04:08:05.036Z,14.10
2018-06-20T04:10:33.481Z,14.10
2018-06-20T04:13:01.940Z,14.30
2018-06-20T04:15:30.349Z,14.40
2018-06-20T04:17:58.814Z,14.40
2018-06-20T04:22:55.427Z,14.50
2018-06-20T04:25:23.975Z,14.60
2018-06-20T04:27:52.447Z,14.60
2018-06-20T04:30:20.885Z,14.60
2018-06-20T04:32:49.338Z,14.60
2018-06-20T04:35:17.761Z,14.60
2018-06-20T04:37:46.276Z,14.70
2018-06-20T04:40:14.717Z,14.90
2018-06-20T04:42:43.173Z,15.00
2018-06-20T04:45:11.905Z,15.10
2018-06-20T04:50:08.548Z,15.30
2018-06-20T04:52:37.000Z,15.40
2018-06-20T04:55:05.540Z,15.60
2018-06-20T04:57:34.085Z,15.60
2018-06-20T05:00:02.554Z,15.80
2018-06-20T05:02:31.012Z,15.90
2018-06-20T05:04:59.446Z,15.90
2018-06-20T05:07:28.090Z,16.10
2018-06-20T05:09:56.541Z,16.20
2018-06-20T05:12:25.002Z,16.40
2018-06-20T05:14:53.504Z,16.60
2018-06-20T05:17:21.944Z,16.60
2018-06-20T05:19:50.435Z,16.80
2018-06-20T05:22:18.968Z,17.00
2018-06-20T05:24:47.487Z,17.00
2018-06-20T05:27:15.933Z,17.40
2018-06-20T05:29:44.414Z,17.50
2018-06-20T05:32:12.845Z,17.60
2018-06-20T05:34:41.276Z,17.80
2018-06-20T05:37:09.793Z,18.00
2018-06-20T05:39:38.244Z,18.10
2018-06-20T05:42:06.702Z,18.20
2018-06-20T05:44:35.172Z,18.30
2018-06-20T05:47:03.593Z,18.50
2018-06-20T05:49:32.097Z,18.60
2018-06-20T05:52:00.523Z,18.90
2018-06-20T05:54:29.007Z,19.10
2018-06-20T05:56:57.412Z,19.40
2018-06-20T05:59:25.868Z,19.70
2018-06-20T06:01:54.313Z,19.90
2018-06-20T06:04:22.763Z,20.40
2018-06-20T06:06:51.180Z,20.90
2018-06-20T06:09:19.620Z,21.50
2018-06-20T06:11:48.072Z,21.80
2018-06-20T06:14:16.524Z,22.20
2018-06-20T06:16:44.963Z,22.60
2018-06-20T06:19:13.405Z,22.80
2018-06-20T06:21:42.025Z,23.30
2018-06-20T06:24:10.504Z,24.40
2018-06-20T06:26:38.928Z,25.30
2018-06-20T06:29:07.673Z,25.80
2018-06-20T06:31:36.121Z,26.00
2018-06-20T06:34:04.605Z,26.30
2018-06-20T06:36:33.046Z,26.60
2018-06-20T06:39:01.474Z,27.40
2018-06-20T06:41:29.913Z,27.60
2018-06-20T06:43:58.375Z,28.00
2018-06-20T06:46:26.818Z,28.20
2018-06-20T06:48:56.041Z,28.70
2018-06-20T06:51:24.582Z,28.60
2018-06-20T06:53:53.013Z,28.50
2018-06-20T06:56:21.519Z,28.50
2018-06-20T06:58:49.994Z,29.20
2018-06-20T07:01:18.440Z,29.50
2018-06-20T07:03:47.056Z,29.20
2018-06-20T07:06:15.521Z,29.10
2018-06-20T07:08:44.032Z,29.20
2018-06-20T07:11:12.480Z,29.60
2018-06-20T07:13:40.986Z,30.00
2018-06-20T07:18:37.639Z,31.10
2018-06-20T07:21:06.452Z,31.20
2018-06-20T07:23:34.879Z,30.60
2018-06-20T07:28:31.480Z,30.30
2018-06-20T07:31:00.041Z,30.40
2018-06-20T07:33:28.563Z,30.60
2018-06-20T07:35:57.322Z,30.70
2018-06-20T07:38:25.710Z,31.20
2018-06-20T07:40:54.151Z,31.50
2018-06-20T07:43:22.668Z,31.60
2018-06-20T07:45:51.132Z,31.40
2018-06-20T07:48:19.555Z,31.70
2018-06-20T07:50:48.267Z,31.10
2018-06-20T07:53:16.641Z,31.10
2018-06-20T07:55:45.249Z,32.20
2018-06-20T07:58:19.082Z,32.40
2018-06-20T08:00:52.896Z,33.40
2018-06-20T08:03:26.677Z,33.60
2018-06-20T08:06:00.505Z,34.00
2018-06-20T08:08:34.285Z,34.70
2018-06-20T08:11:08.012Z,35.10
2018-06-20T08:13:41.752Z,35.00
2018-06-20T08:16:15.577Z,34.50
2018-06-20T08:18:49.261Z,34.60
2018-06-20T08:21:17.681Z,34.70
2018-06-20T08:23:46.104Z,35.20
2018-06-20T08:26:14.697Z,35.30
2018-06-20T08:28:43.124Z,35.50
2018-06-20T08:31:11.586Z,35.20
2018-06-20T08:33:39.993Z,35.00
2018-06-20T08:36:08.540Z,35.40
2018-06-20T08:38:36.963Z,35.60
2018-06-20T08:41:05.510Z,34.80
2018-06-20T08:43:33.917Z,34.50
2018-06-20T08:46:02.348Z,33.80
2018-06-20T08:48:30.829Z,33.60
2018-06-20T08:50:59.228Z,34.20
2018-06-20T08:53:27.688Z,34.30
2018-06-20T08:55:56.097Z,33.60
2018-06-20T09:00:57.993Z,34.10
2018-06-20T09:03:26.577Z,34.50
2018-06-20T09:06:00.176Z,34.60
2018-06-20T09:08:34.040Z,35.10
2018-06-20T09:11:07.846Z,35.10
2018-06-20T09:16:15.060Z,36.10
2018-06-20T09:18:48.881Z,35.10
2018-06-20T09:21:17.323Z,34.90
2018-06-20T09:23:45.776Z,34.20
2018-06-20T09:26:14.189Z,33.90
2018-06-20T09:28:42.620Z,33.60
2018-06-20T09:31:11.043Z,32.50
2018-06-20T09:33:39.516Z,32.10
2018-06-20T09:36:08.192Z,32.50
2018-06-20T09:38:36.727Z,32.80
2018-06-20T09:41:05.105Z,33.30
2018-06-20T09:43:33.536Z,32.80
2018-06-20T09:46:01.976Z,32.90
2018-06-20T09:48:30.465Z,32.80
2018-06-20T09:50:59.757Z,33.10
2018-06-20T09:53:28.396Z,33.60
2018-06-20T09:55:56.808Z,34.30
2018-06-20T09:58:25.253Z,34.30
2018-06-20T10:00:59.004Z,34.90
2018-06-20T10:03:32.704Z,36.10
2018-06-20T10:06:06.313Z,36.20
2018-06-20T10:11:13.582Z,35.40
2018-06-20T10:13:46.114Z,34.60
2018-06-20T10:16:14.668Z,34.90
2018-06-20T10:18:43.109Z,35.20
2018-06-20T10:21:11.637Z,35.20
2018-06-20T10:23:40.261Z,35.10
2018-06-20T10:26:08.781Z,34.00
2018-06-20T10:28:37.248Z,34.00
2018-06-20T10:31:05.697Z,34.30
2018-06-20T10:33:34.137Z,34.50
2018-06-20T10:36:02.557Z,34.80
2018-06-20T10:38:30.989Z,35.40
2018-06-20T10:40:59.452Z,35.00
2018-06-20T10:43:27.894Z,33.70
2018-06-20T10:46:01.719Z,35.00
2018-06-20T10:48:30.213Z,33.70
2018-06-20T10:50:58.641Z,33.10
2018-06-20T10:53:27.103Z,32.80
2018-06-20T10:55:55.613Z,31.80
2018-06-20T10:58:29.300Z,31.00
2018-06-20T11:01:03.073Z,29.90
2018-06-20T11:03:36.843Z,28.90
2018-06-20T11:06:10.508Z,28.00
2018-06-20T11:08:44.303Z,27.70
2018-06-20T11:11:18.041Z,27.30
2018-06-20T11:13:48.094Z,27.20
2018-06-20T11:16:16.676Z,27.10
2018-06-20T11:18:48.775Z,27.10
2018-06-20T11:21:17.184Z,26.90
2018-06-20T11:23:45.621Z,26.90
2018-06-20T11:26:14.010Z,26.70
2018-06-20T11:28:42.421Z,26.70
2018-06-20T11:31:10.903Z,26.70
2018-06-20T11:33:39.300Z,26.70
2018-06-20T11:36:07.829Z,26.60
2018-06-20T11:38:36.289Z,26.70
2018-06-20T11:41:04.733Z,26.60
2018-06-20T11:43:33.176Z,26.60
2018-06-20T11:46:07.106Z,26.80
2018-06-20T11:48:35.525Z,26.70
2018-06-20T11:51:04.007Z,26.70
2018-06-20T11:53:32.407Z,26.80
2018-06-20T11:56:00.872Z,26.70
2018-06-20T11:58:34.580Z,26.70
2018-06-20T12:04:41.516Z,26.50
2018-06-20T12:09:18.220Z,26.40
2018-06-20T12:11:51.964Z,26.40
2018-06-20T12:14:25.621Z,26.30
2018-06-20T12:16:53.329Z,26.20
2018-06-20T12:19:27.162Z,26.40
2018-06-20T12:22:01.030Z,26.30
2018-06-20T12:24:34.653Z,26.30
2018-06-20T12:27:08.357Z,26.30
2018-06-20T12:29:41.900Z,26.20
2018-06-20T12:32:15.797Z,26.30
2018-06-20T12:34:49.542Z,26.20
2018-06-20T12:37:23.333Z,26.20
2018-06-20T12:39:55.953Z,26.40
2018-06-20T12:42:29.843Z,26.40
2018-06-20T12:45:06.131Z,26.40
2018-06-20T12:47:40.244Z,26.40
2018-06-20T12:50:11.769Z,26.40
2018-06-20T12:52:40.241Z,26.40
2018-06-20T12:55:08.705Z,26.50
2018-06-20T12:57:38.033Z,26.30
2018-06-20T13:00:06.475Z,26.30
2018-06-20T13:02:34.957Z,26.30
2018-06-20T13:05:03.457Z,26.30
2018-06-20T13:07:31.905Z,26.30
2018-06-20T13:10:00.350Z,26.30
2018-06-20T13:12:28.864Z,26.30
2018-06-20T13:14:57.280Z,26.30
2018-06-20T13:17:26.053Z,26.50
2018-06-20T13:19:54.599Z,26.40
2018-06-20T13:22:23.195Z,26.40
2018-06-20T13:24:51.864Z,26.30
2018-06-20T13:27:25.500Z,26.40
2018-06-20T13:29:59.248Z,26.40
2018-06-20T13:32:33.132Z,26.50
2018-06-20T13:35:06.832Z,26.50
2018-06-20T13:39:45.801Z,26.50
2018-06-20T13:43:17.922Z,26.40
2018-06-20T13:45:51.697Z,26.20
2018-06-20T13:48:27.549Z,26.30
2018-06-20T13:50:55.978Z,26.20
2018-06-20T13:53:24.460Z,26.20
2018-06-20T13:55:52.922Z,26.30
2018-06-20T13:58:21.372Z,26.20
2018-06-20T14:00:49.911Z,26.20
2018-06-20T14:03:18.442Z,26.20
2018-06-20T14:05:46.913Z,26.20
2018-06-20T14:08:15.385Z,26.20
2018-06-20T14:10:43.800Z,26.10
2018-06-20T14:13:12.280Z,26.20
2018-06-20T14:15:41.061Z,26.20
2018-06-20T14:18:09.700Z,26.20
2018-06-20T14:20:43.356Z,26.10
2018-06-20T14:23:11.805Z,26.10
2018-06-20T14:25:40.255Z,26.20
2018-06-20T14:28:08.742Z,26.10
2018-06-20T14:30:42.539Z,26.10
2018-06-20T14:33:16.289Z,26.10
2018-06-20T14:35:49.992Z,26.20
2018-06-20T14:38:23.765Z,26.20
2018-06-20T14:40:57.604Z,26.20
2018-06-20T14:43:31.337Z,26.20
2018-06-20T14:46:05.038Z,26.30
2018-06-20T14:48:33.451Z,26.30
2018-06-20T14:51:01.872Z,26.30
2018-06-20T14:53:30.315Z,26.30
2018-06-20T14:55:58.760Z,26.30
2018-06-20T14:58:27.220Z,26.20
2018-06-20T15:00:55.790Z,26.10
2018-06-20T15:03:24.185Z,26.10
2018-06-20T15:05:52.637Z,26.10
2018-06-20T15:08:21.095Z,26.10
2018-06-20T15:10:49.583Z,26.20
2018-06-20T15:13:18.150Z,26.20
2018-06-20T15:15:46.593Z,26.10
2018-06-20T15:18:15.312Z,26.20
2018-06-20T15:20:43.815Z,26.10
2018-06-20T15:23:12.240Z,26.20
2018-06-20T15:25:40.745Z,26.20
2018-06-20T15:28:14.429Z,26.20
2018-06-20T15:30:48.149Z,26.20
2018-06-20T15:33:21.968Z,26.10
2018-06-20T15:35:55.764Z,26.10
2018-06-20T15:38:25.711Z,26.00
2018-06-20T15:40:54.259Z,26.10
2018-06-20T15:43:22.731Z,26.20
2018-06-20T15:45:51.261Z,26.10
2018-06-20T15:48:19.689Z,26.10
2018-06-20T15:50:48.138Z,26.10
2018-06-20T15:53:16.582Z,26.00
2018-06-20T15:55:45.240Z,25.90
2018-06-20T15:58:13.775Z,25.90
2018-06-20T16:00:42.260Z,25.90
2018-06-20T16:03:10.790Z,26.00
2018-06-20T16:05:39.292Z,26.00
2018-06-20T16:08:07.745Z,26.00
2018-06-20T16:10:36.189Z,26.10
2018-06-20T16:13:04.672Z,26.10
2018-06-20T16:15:33.156Z,26.00
2018-06-20T16:18:01.731Z,26.00
2018-06-20T16:20:35.648Z,26.00
2018-06-20T16:23:09.509Z,25.90
2018-06-20T16:25:43.348Z,25.90
2018-06-20T16:28:17.230Z,25.90
2018-06-20T16:30:46.474Z,25.90
2018-06-20T16:33:14.966Z,25.90
2018-06-20T16:35:43.404Z,26.00
2018-06-20T16:40:40.493Z,26.00
2018-06-20T16:43:09.096Z,25.90
2018-06-20T16:45:38.247Z,25.90
2018-06-20T16:48:07.405Z,25.80
2018-06-20T16:50:36.190Z,25.80
2018-06-20T16:53:05.055Z,25.90
2018-06-20T16:55:34.427Z,25.80
2018-06-20T16:58:03.583Z,25.80
2018-06-20T17:00:32.660Z,25.80
2018-06-20T17:03:01.172Z,25.80
2018-06-20T17:05:29.656Z,25.80
2018-06-20T17:07:58.104Z,25.80
2018-06-20T17:10:26.548Z,25.80
2018-06-20T17:13:00.253Z,25.80
2018-06-20T17:15:33.909Z,25.80
2018-06-20T17:18:07.478Z,25.70
2018-06-20T17:20:41.329Z,25.60
2018-06-20T17:23:15.258Z,25.50
2018-06-20T17:25:43.677Z,25.50
2018-06-20T17:30:40.396Z,25.40
2018-06-20T17:33:08.852Z,25.30
2018-06-20T17:35:37.277Z,25.30
2018-06-20T17:38:05.837Z,25.40
2018-06-20T17:40:34.269Z,25.30
2018-06-20T17:43:02.746Z,25.30
2018-06-20T17:45:31.172Z,25.30
2018-06-20T17:47:59.619Z,25.30
2018-06-20T17:50:28.148Z,25.30
2018-06-20T17:52:56.596Z,25.20
2018-06-20T17:55:25.022Z,25.20
2018-06-20T17:57:53.474Z,25.10
2018-06-20T18:00:21.907Z,25.10
2018-06-20T18:02:50.411Z,25.00
2018-06-20T18:05:24.578Z,25.00
2018-06-20T18:07:58.360Z,24.90
2018-06-20T18:10:32.185Z,24.90
2018-06-20T18:13:04.493Z,24.90
2018-06-20T18:15:38.364Z,24.80
2018-06-20T18:18:07.125Z,24.70
2018-06-20T18:20:35.552Z,24.60
2018-06-20T18:23:04.418Z,24.50
2018-06-20T18:25:32.952Z,24.40
2018-06-20T18:28:01.449Z,24.40
2018-06-20T18:30:29.901Z,24.30
2018-06-20T18:35:26.473Z,24.20
2018-06-20T18:37:56.632Z,24.10
2018-06-20T18:40:25.387Z,24.00
2018-06-20T18:42:55.338Z,23.90
2018-06-20T18:45:23.870Z,23.90
2018-06-20T18:47:57.650Z,23.80
2018-06-20T18:50:26.781Z,23.70
2018-06-20T18:52:55.218Z,23.60
2018-06-20T18:55:23.764Z,23.60
2018-06-20T18:57:58.109Z,23.40
2018-06-20T19:02:40.196Z,23.30
2018-06-20T19:05:13.840Z,23.20
2018-06-20T19:07:47.821Z,23.10
2018-06-20T19:10:16.277Z,23.10
2018-06-20T19:12:44.784Z,22.90
2018-06-20T19:15:13.462Z,22.90
2018-06-20T19:17:41.929Z,22.80
2018-06-20T19:20:10.437Z,22.70
2018-06-20T19:22:38.885Z,22.50
2018-06-20T19:25:07.520Z,22.40
2018-06-20T19:27:35.977Z,22.40
2018-06-20T19:30:04.561Z,22.30
2018-06-20T19:32:33.104Z,22.20
2018-06-20T19:35:01.554Z,22.10
2018-06-20T19:37:30.007Z,22.10
2018-06-20T19:39:58.485Z,22.10
2018-06-20T19:42:26.960Z,22.00
2018-06-20T19:44:55.499Z,21.90
2018-06-20T19:47:23.860Z,21.80
2018-06-20T19:49:52.277Z,21.80
2018-06-20T19:52:20.770Z,21.70
2018-06-20T19:54:49.209Z,21.70
2018-06-20T19:57:17.712Z,21.60
2018-06-20T19:59:46.098Z,21.60
2018-06-20T20:02:14.577Z,21.50
2018-06-20T20:04:43.056Z,21.50
2018-06-20T20:07:11.752Z,21.50
2018-06-20T20:09:40.236Z,21.40
2018-06-20T20:12:08.657Z,21.40
2018-06-20T20:14:37.089Z,21.40
2018-06-20T20:17:05.902Z,21.20
2018-06-20T20:19:34.428Z,21.20
2018-06-20T20:22:02.884Z,21.10
2018-06-20T20:26:59.512Z,21.00
2018-06-20T20:29:27.927Z,21.00
2018-06-20T20:31:56.401Z,20.90
2018-06-20T20:34:24.841Z,20.90
2018-06-20T20:36:53.346Z,20.80
2018-06-20T20:39:21.768Z,20.80
2018-06-20T20:41:50.218Z,20.80
2018-06-20T20:44:18.649Z,20.70
2018-06-20T20:49:15.268Z,20.70
2018-06-20T20:51:43.704Z,20.60
2018-06-20T20:54:12.168Z,20.60
2018-06-20T20:56:40.604Z,20.50
2018-06-20T20:59:09.176Z,20.50
2018-06-20T21:01:37.488Z,20.50
2018-06-20T21:04:05.985Z,20.40
2018-06-20T21:09:02.705Z,20.30
2018-06-20T21:11:32.493Z,20.30
2018-06-20T21:14:01.864Z,20.30
2018-06-20T21:16:30.836Z,20.20
2018-06-20T21:18:59.644Z,20.20
2018-06-20T21:21:28.820Z,20.20
2018-06-20T21:23:57.937Z,20.10
2018-06-20T21:26:26.352Z,20.10
2018-06-20T21:28:55.084Z,20.00
2018-06-20T21:31:23.961Z,20.00
2018-06-20T21:33:52.561Z,20.00
2018-06-20T21:36:21.219Z,19.90
2018-06-20T21:38:49.676Z,19.90
2018-06-20T21:41:18.116Z,19.90
2018-06-20T21:43:46.574Z,19.90
2018-06-20T21:46:15.057Z,19.80
2018-06-20T21:48:43.497Z,19.80
2018-06-20T21:51:12.686Z,19.80
2018-06-20T21:53:41.168Z,19.70
2018-06-20T21:56:09.595Z,19.60
2018-06-20T21:58:38.151Z,19.60
2018-06-20T22:01:06.584Z,19.50
2018-06-20T22:03:35.341Z,19.50
2018-06-20T22:06:03.782Z,19.50
2018-06-20T22:08:32.334Z,19.50
2018-06-20T22:11:00.761Z,19.40
2018-06-20T22:13:29.177Z,19.40
2018-06-20T22:15:57.681Z,19.40
2018-06-20T22:18:26.082Z,19.20
2018-06-20T22:20:54.528Z,19.20
2018-06-20T22:25:51.141Z,19.20
2018-06-20T22:28:19.581Z,19.20
2018-06-20T22:30:48.055Z,19.20
2018-06-20T22:33:16.512Z,19.10
2018-06-20T22:35:45.216Z,19.00
2018-06-20T22:38:13.631Z,19.00
2018-06-20T22:40:42.084Z,18.80
2018-06-20T22:43:10.491Z,18.80
2018-06-20T22:45:38.940Z,18.80
2018-06-20T22:48:07.798Z,18.70
2018-06-20T22:50:36.246Z,18.70
2018-06-20T22:53:04.881Z,18.70
2018-06-20T22:55:33.444Z,18.60
2018-06-20T23:00:30.015Z,18.60
2018-06-20T23:02:58.488Z,18.60
2018-06-20T23:05:26.932Z,18.50
2018-06-20T23:07:55.429Z,18.40
2018-06-20T23:10:24.271Z,18.40
2018-06-20T23:12:52.751Z,18.40
2018-06-20T23:15:21.219Z,18.30
2018-06-20T23:17:49.643Z,18.30
2018-06-20T23:20:18.069Z,18.20
2018-06-20T23:22:46.506Z,18.20
2018-06-20T23:27:43.134Z,18.10
2018-06-20T23:30:11.553Z,18.10
2018-06-20T23:32:39.989Z,18.10
2018-06-20T23:35:08.413Z,18.10
2018-06-20T23:37:36.848Z,18.00
2018-06-20T23:40:05.296Z,18.00
2018-06-20T23:42:33.823Z,17.90
2018-06-20T23:45:02.241Z,17.90
2018-06-20T23:47:30.683Z,17.90
2018-06-20T23:49:59.089Z,17.90
2018-06-20T23:52:27.536Z,17.80
2018-06-20T23:54:56.062Z,17.80
2018-06-20T23:57:24.512Z,17.70
2018-06-20T23:59:53.133Z,17.60
